createdAt,value
2023-03-12T00:00:20.270Z,97618.13
2023-03-12T00:02:47.355Z,97612.19
2023-03-12T00:05:14.284Z,97621.88
2023-03-12T00:07:41.094Z,97626.84
2023-03-12T00:10:09.092Z,97619.19
2023-03-12T00:12:36.040Z,97622.97
2023-03-12T00:15:03.284Z,97622.13
2023-03-12T00:17:30.365Z,97616.91
2023-03-12T00:19:58.011Z,97623.59
2023-03-12T00:22:25.936Z,97626.41
2023-03-12T00:24:56.814Z,97628.94
2023-03-12T00:27:24.664Z,97635.53
2023-03-12T00:29:51.456Z,97636.81
2023-03-12T00:32:18.389Z,97640.75
2023-03-12T00:34:50.475Z,97633.09
2023-03-12T00:37:17.231Z,97635.09
2023-03-12T00:39:44.707Z,97642.16
2023-03-12T00:42:15.034Z,97643.03
2023-03-12T00:44:41.827Z,97646.25
2023-03-12T00:47:08.772Z,97648.16
2023-03-12T00:49:35.534Z,97650.69
2023-03-12T00:52:03.081Z,97653.47
2023-03-12T00:54:31.462Z,97644.47
2023-03-12T00:56:58.338Z,97645.16
2023-03-12T00:59:27.122Z,97649.31
2023-03-12T01:03:31.670Z,97652.91
2023-03-12T01:05:58.722Z,97662.81
2023-03-12T01:08:26.451Z,97662.81
2023-03-12T01:10:53.562Z,97661.66
2023-03-12T01:13:20.762Z,97662.69
2023-03-12T01:15:47.896Z,97658.13
2023-03-12T01:18:14.810Z,97656.44
2023-03-12T01:20:41.643Z,97664.78
2023-03-12T01:23:09.801Z,97671.16
2023-03-12T01:25:37.767Z,97662.50
2023-03-12T01:28:04.857Z,97661.06
2023-03-12T01:30:32.197Z,97660.88
2023-03-12T01:33:00.297Z,97654.06
2023-03-12T01:35:27.242Z,97659.47
2023-03-12T01:37:56.143Z,97661.34
2023-03-12T01:40:26.303Z,97663.50
2023-03-12T01:42:58.252Z,97663.56
2023-03-12T01:46:06.246Z,97660.97
2023-03-12T01:48:41.677Z,97652.81
2023-03-12T01:51:12.774Z,97661.69
2023-03-12T01:53:41.944Z,97665.38
2023-03-12T01:56:21.522Z,97663.00
2023-03-12T01:58:53.280Z,97668.59
2023-03-12T02:01:21.883Z,97674.47
2023-03-12T02:04:20.599Z,97671.50
2023-03-12T02:07:17.880Z,97676.38
2023-03-12T02:09:50.002Z,97669.81
2023-03-12T02:12:17.921Z,97668.03
2023-03-12T02:14:45.827Z,97664.97
2023-03-12T02:17:13.594Z,97681.78
2023-03-12T02:20:00.261Z,97666.13
2023-03-12T02:22:29.558Z,97668.91
2023-03-12T02:24:56.353Z,97671.38
2023-03-12T02:27:28.155Z,97673.91
2023-03-12T02:29:55.088Z,97673.56
2023-03-12T02:32:24.548Z,97676.53
2023-03-12T02:34:51.659Z,97672.06
2023-03-12T02:37:19.334Z,97685.50
2023-03-12T02:39:55.086Z,97690.81
2023-03-12T02:42:24.550Z,97684.84
2023-03-12T02:44:51.811Z,97691.94
2023-03-12T02:47:21.591Z,97694.13
2023-03-12T02:49:48.734Z,97703.41
2023-03-12T02:52:15.725Z,97699.06
2023-03-12T02:54:42.944Z,97703.00
2023-03-12T02:57:11.016Z,97704.81
2023-03-12T02:59:38.587Z,97706.13
2023-03-12T03:02:09.913Z,97706.91
2023-03-12T03:04:36.969Z,97704.84
2023-03-12T03:07:04.823Z,97705.97
2023-03-12T03:09:32.366Z,97713.88
2023-03-12T03:12:00.898Z,97712.91
2023-03-12T03:14:29.842Z,97712.75
2023-03-12T03:16:56.662Z,97714.88
2023-03-12T03:19:24.098Z,97724.75
2023-03-12T03:21:51.120Z,97723.72
2023-03-12T03:24:18.247Z,97722.50
2023-03-12T03:26:45.059Z,97724.81
2023-03-12T03:29:12.266Z,97727.72
2023-03-12T03:31:39.715Z,97725.56
2023-03-12T03:34:06.799Z,97728.25
2023-03-12T03:36:36.803Z,97731.16
2023-03-12T03:39:09.160Z,97723.72
2023-03-12T03:41:37.684Z,97713.44
2023-03-12T03:44:06.903Z,97726.41
2023-03-12T03:46:35.852Z,97722.09
2023-03-12T03:49:06.400Z,97735.03
2023-03-12T03:51:34.382Z,97737.16
2023-03-12T03:54:06.689Z,97729.25
2023-03-12T03:56:34.116Z,97739.41
2023-03-12T03:59:05.147Z,97740.56
2023-03-12T04:01:35.912Z,97748.31
2023-03-12T04:04:03.605Z,97738.56
2023-03-12T04:06:34.555Z,97756.56
2023-03-12T04:09:03.289Z,97758.13
2023-03-12T04:11:35.272Z,97750.66
2023-03-12T04:14:07.955Z,97759.06
2023-03-12T04:16:38.212Z,97767.44
2023-03-12T04:19:05.713Z,97764.38
2023-03-12T04:21:32.812Z,97767.63
2023-03-12T04:24:00.869Z,97765.38
2023-03-12T04:26:32.794Z,97771.22
2023-03-12T04:29:01.288Z,97765.97
2023-03-12T04:31:29.422Z,97765.63
2023-03-12T04:33:56.624Z,97767.16
2023-03-12T04:36:25.322Z,97761.00
2023-03-12T04:38:54.152Z,97770.91
2023-03-12T04:41:26.265Z,97768.03
2023-03-12T04:43:59.727Z,97768.38
2023-03-12T04:46:27.989Z,97765.44
2023-03-12T04:48:55.501Z,97765.81
2023-03-12T04:51:22.570Z,97777.38
2023-03-12T04:53:49.966Z,97775.19
2023-03-12T04:56:16.903Z,97771.50
2023-03-12T04:58:47.142Z,97766.03
2023-03-12T05:01:26.042Z,97759.75
2023-03-12T05:03:53.750Z,97769.13
2023-03-12T05:06:22.292Z,97776.53
2023-03-12T05:08:50.635Z,97786.63
2023-03-12T05:11:19.555Z,97781.06
2023-03-12T05:13:48.331Z,97787.75
2023-03-12T05:16:16.658Z,97794.56
2023-03-12T05:18:45.745Z,97792.66
2023-03-12T05:21:19.555Z,97791.75
2023-03-12T05:23:49.054Z,97794.44
2023-03-12T05:26:21.512Z,97798.34
2023-03-12T05:28:49.309Z,97791.69
2023-03-12T05:31:18.526Z,97801.41
2023-03-12T05:33:45.695Z,97800.50
2023-03-12T05:36:14.480Z,97802.75
2023-03-12T05:38:46.494Z,97803.59
2023-03-12T05:41:29.518Z,97798.97
2023-03-12T05:44:01.204Z,97800.16
2023-03-12T05:46:35.756Z,97797.16
2023-03-12T05:49:03.576Z,97803.25
2023-03-12T05:51:33.165Z,97806.56
2023-03-12T05:54:02.052Z,97794.59
2023-03-12T05:56:29.017Z,97794.72
2023-03-12T05:58:56.753Z,97791.13
2023-03-12T06:01:28.152Z,97794.22
2023-03-12T06:04:00.975Z,97801.53
2023-03-12T06:06:32.982Z,97796.63
2023-03-12T06:09:01.909Z,97802.41
2023-03-12T06:11:30.608Z,97803.25
2023-03-12T06:14:01.824Z,97806.34
2023-03-12T06:16:30.921Z,97798.47
2023-03-12T06:19:03.383Z,97799.03
2023-03-12T06:21:36.398Z,97792.44
2023-03-12T06:24:06.607Z,97785.34
2023-03-12T06:26:42.365Z,97790.31
2023-03-12T06:29:12.295Z,97789.72
2023-03-12T06:31:44.352Z,97803.88
2023-03-12T06:34:11.895Z,97805.72
2023-03-12T06:36:39.733Z,97802.03
2023-03-12T06:39:09.113Z,97805.22
2023-03-12T06:41:38.367Z,97802.44
2023-03-12T06:44:08.446Z,97809.88
2023-03-12T06:46:35.902Z,97808.19
2023-03-12T06:49:04.132Z,97802.59
2023-03-12T06:51:36.901Z,97811.66
2023-03-12T06:54:05.996Z,97805.66
2023-03-12T06:56:33.583Z,97811.94
2023-03-12T06:59:00.625Z,97819.66
2023-03-12T07:01:28.873Z,97815.41
2023-03-12T07:03:56.453Z,97818.44
2023-03-12T07:06:37.867Z,97828.25
2023-03-12T07:09:05.608Z,97827.47
2023-03-12T07:11:35.517Z,97830.88
2023-03-12T07:14:03.753Z,97826.78
2023-03-12T07:16:31.452Z,97823.09
2023-03-12T07:18:59.440Z,97830.78
2023-03-12T07:21:27.372Z,97824.28
2023-03-12T07:23:55.001Z,97821.19
2023-03-12T07:26:22.138Z,97825.63
2023-03-12T07:28:50.662Z,97826.56
2023-03-12T07:31:17.959Z,97819.28
2023-03-12T07:33:46.048Z,97819.47
2023-03-12T07:36:14.986Z,97831.63
2023-03-12T07:38:43.092Z,97828.25
2023-03-12T07:41:10.996Z,97828.16
2023-03-12T07:43:47.318Z,97828.59
2023-03-12T07:46:17.316Z,97830.66
2023-03-12T07:48:47.736Z,97830.81
2023-03-12T07:51:14.884Z,97827.28
2023-03-12T07:53:44.818Z,97831.72
2023-03-12T07:56:11.908Z,97828.84
2023-03-12T07:58:39.841Z,97830.91
2023-03-12T08:01:09.164Z,97819.56
2023-03-12T08:03:36.658Z,97830.25
2023-03-12T08:06:05.827Z,97820.78
2023-03-12T08:08:36.271Z,97824.09
2023-03-12T08:11:05.637Z,97827.75
2023-03-12T08:13:32.943Z,97825.50
2023-03-12T08:16:00.755Z,97825.59
2023-03-12T08:18:28.526Z,97828.34
2023-03-12T08:20:55.991Z,97829.44
2023-03-12T08:23:23.783Z,97827.50
2023-03-12T08:25:51.679Z,97817.56
2023-03-12T08:28:20.564Z,97825.72
2023-03-12T08:30:55.542Z,97819.91
2023-03-12T08:33:22.914Z,97817.78
2023-03-12T08:35:50.720Z,97808.63
2023-03-12T08:38:18.569Z,97818.88
2023-03-12T08:40:46.116Z,97820.75
2023-03-12T08:43:13.390Z,97820.22
2023-03-12T08:45:40.727Z,97817.69
2023-03-12T08:48:08.596Z,97822.66
2023-03-12T08:50:38.536Z,97819.09
2023-03-12T08:53:06.141Z,97826.59
2023-03-12T08:55:33.450Z,97823.66
2023-03-12T08:58:01.006Z,97821.88
2023-03-12T09:00:29.406Z,97819.88
2023-03-12T09:02:58.625Z,97820.41
2023-03-12T09:05:30.056Z,97814.91
2023-03-12T09:08:04.133Z,97814.69
2023-03-12T09:10:34.819Z,97812.16
2023-03-12T09:13:02.884Z,97816.94
2023-03-12T09:15:30.775Z,97815.03
2023-03-12T09:17:59.095Z,97816.50
2023-03-12T09:20:26.945Z,97814.50
2023-03-12T09:22:56.457Z,97813.00
2023-03-12T09:25:24.758Z,97815.13
2023-03-12T09:27:59.115Z,97805.88
2023-03-12T09:30:28.439Z,97821.88
2023-03-12T09:32:56.912Z,97810.25
2023-03-12T09:35:24.777Z,97816.88
2023-03-12T09:37:54.325Z,97807.66
2023-03-12T09:40:25.961Z,97808.13
2023-03-12T09:42:59.598Z,97814.13
2023-03-12T09:45:30.552Z,97799.72
2023-03-12T09:48:01.302Z,97803.66
2023-03-12T09:50:33.848Z,97805.84
2023-03-12T09:53:05.018Z,97796.56
2023-03-12T09:55:37.678Z,97801.22
2023-03-12T09:58:14.426Z,97793.31
2023-03-12T10:00:41.432Z,97802.31
2023-03-12T10:03:27.097Z,97796.47
2023-03-12T10:06:22.002Z,97789.16
2023-03-12T10:09:11.143Z,97792.91
2023-03-12T10:11:57.145Z,97783.59
2023-03-12T10:14:24.521Z,97794.16
2023-03-12T10:17:10.768Z,97793.88
2023-03-12T10:20:17.104Z,97780.94
2023-03-12T10:22:52.742Z,97780.91
2023-03-12T10:25:39.668Z,97772.22
2023-03-12T10:28:49.964Z,97777.31
2023-03-12T10:31:27.431Z,97784.53
2023-03-12T10:34:00.008Z,97778.53
2023-03-12T10:36:33.414Z,97776.50
2023-03-12T10:39:01.308Z,97774.56
2023-03-12T10:41:35.108Z,97773.88
2023-03-12T10:44:07.939Z,97768.09
2023-03-12T10:46:44.336Z,97769.56
2023-03-12T10:49:31.987Z,97759.69
2023-03-12T10:52:22.439Z,97752.72
2023-03-12T10:54:53.013Z,97749.00
2023-03-12T10:57:21.984Z,97753.44
2023-03-12T10:59:55.057Z,97755.00
2023-03-12T11:02:29.252Z,97754.63
2023-03-12T11:05:03.549Z,97758.97
2023-03-12T11:07:33.636Z,97749.88
2023-03-12T11:10:07.694Z,97737.75
2023-03-12T11:12:44.633Z,97745.00
2023-03-12T11:15:25.924Z,97731.75
2023-03-12T11:17:53.213Z,97723.63
2023-03-12T11:20:30.379Z,97735.19
2023-03-12T11:23:01.315Z,97735.88
2023-03-12T11:25:29.947Z,97726.56
2023-03-12T11:28:02.827Z,97722.25
2023-03-12T11:34:37.862Z,97716.13
2023-03-12T11:37:07.997Z,97714.56
2023-03-12T11:39:53.682Z,97730.97
2023-03-12T11:42:32.962Z,97733.06
2023-03-12T11:45:45.593Z,97725.13
2023-03-12T11:48:30.013Z,97722.59
2023-03-12T11:51:16.745Z,97737.25
2023-03-12T11:54:05.998Z,97727.03
2023-03-12T11:57:08.726Z,97715.13
2023-03-12T12:00:00.930Z,97713.19
2023-03-12T12:02:46.222Z,97701.16
2023-03-12T12:05:41.602Z,97712.63
2023-03-12T12:08:29.546Z,97690.16
2023-03-12T12:11:08.643Z,97693.16
2023-03-12T12:13:49.635Z,97682.03
2023-03-12T12:16:40.483Z,97681.06
2023-03-12T12:19:20.303Z,97676.72
2023-03-12T12:22:15.144Z,97667.00
2023-03-12T12:24:51.544Z,97662.25
2023-03-12T12:27:24.471Z,97653.41
2023-03-12T12:30:31.042Z,97668.84
2023-03-12T12:33:44.359Z,97668.13
2023-03-12T12:36:11.989Z,97654.41
2023-03-12T12:39:30.471Z,97659.91
2023-03-12T12:46:17.489Z,97661.75
2023-03-12T12:48:49.014Z,97659.69
2023-03-12T12:51:20.797Z,97652.22
2023-03-12T12:54:16.562Z,97647.91
2023-03-12T12:56:58.058Z,97654.09
2023-03-12T12:59:41.329Z,97648.34
2023-03-12T13:02:21.597Z,97648.44
2023-03-12T13:04:49.950Z,97638.00
2023-03-12T13:07:17.464Z,97651.91
2023-03-12T13:09:57.130Z,97641.56
2023-03-12T13:12:29.939Z,97636.06
2023-03-12T13:14:57.821Z,97622.41
2023-03-12T13:17:55.907Z,97630.28
2023-03-12T13:20:31.637Z,97631.09
2023-03-12T13:22:58.837Z,97640.06
2023-03-12T13:25:50.024Z,97638.69
2023-03-12T13:28:26.749Z,97642.28
2023-03-12T13:30:58.083Z,97640.09
2023-03-12T13:33:49.264Z,97630.25
2023-03-12T13:36:16.584Z,97630.47
2023-03-12T13:39:00.881Z,97618.59
2023-03-12T13:41:41.380Z,97613.78
2023-03-12T13:44:24.446Z,97613.75
2023-03-12T13:47:10.871Z,97621.53
2023-03-12T13:49:55.706Z,97618.97
2023-03-12T13:52:22.729Z,97622.56
2023-03-12T13:55:25.558Z,97614.13
2023-03-12T13:57:59.023Z,97609.53
2023-03-12T14:00:56.579Z,97620.50
2023-03-12T14:03:33.875Z,97609.78
2023-03-12T14:06:21.940Z,97596.06
2023-03-12T14:09:05.014Z,97592.66
2023-03-12T14:11:34.062Z,97594.81
2023-03-12T14:14:38.724Z,97582.50
2023-03-12T14:17:06.077Z,97582.44
2023-03-12T14:19:46.412Z,97579.72
2023-03-12T14:22:14.151Z,97578.13
2023-03-12T14:24:49.771Z,97566.34
2023-03-12T14:27:22.546Z,97566.94
2023-03-12T14:30:09.762Z,97554.91
2023-03-12T14:32:38.051Z,97578.50
2023-03-12T14:35:19.259Z,97558.84
2023-03-12T14:38:03.685Z,97568.94
2023-03-12T14:40:37.641Z,97571.16
2023-03-12T14:43:24.052Z,97566.00
2023-03-12T14:45:58.713Z,97570.28
2023-03-12T14:48:35.602Z,97570.63
2023-03-12T14:51:06.052Z,97563.97
2023-03-12T14:53:35.946Z,97563.69
2023-03-12T14:56:05.214Z,97560.97
2023-03-12T14:58:42.726Z,97576.94
2023-03-12T15:01:14.260Z,97570.28
2023-03-12T15:03:48.568Z,97557.56
2023-03-12T15:06:23.324Z,97556.50
2023-03-12T15:08:51.096Z,97550.28
2023-03-12T15:11:27.423Z,97558.59
2023-03-12T15:14:01.439Z,97556.31
2023-03-12T15:16:31.720Z,97553.03
2023-03-12T15:19:04.363Z,97548.72
2023-03-12T15:21:37.611Z,97551.50
2023-03-12T15:24:07.098Z,97541.53
2023-03-12T15:26:38.390Z,97549.31
2023-03-12T15:29:28.147Z,97535.91
2023-03-12T15:32:01.103Z,97547.53
2023-03-12T15:34:39.961Z,97547.34
2023-03-12T15:37:29.765Z,97541.53
2023-03-12T15:39:57.276Z,97535.66
2023-03-12T15:42:26.970Z,97523.03
2023-03-12T15:45:04.720Z,97542.00
2023-03-12T15:47:40.402Z,97523.75
2023-03-12T15:50:22.985Z,97527.22
2023-03-12T15:53:06.511Z,97532.56
2023-03-12T15:55:35.854Z,97528.47
2023-03-12T15:58:23.018Z,97531.97
2023-03-12T16:00:52.783Z,97531.06
2023-03-12T16:03:22.915Z,97519.06
2023-03-12T16:05:51.434Z,97520.81
2023-03-12T16:08:29.576Z,97519.44
2023-03-12T16:10:56.771Z,97535.25
2023-03-12T16:13:31.336Z,97528.28
2023-03-12T16:15:59.013Z,97527.72
2023-03-12T16:18:26.148Z,97532.13
2023-03-12T16:20:54.416Z,97522.25
2023-03-12T16:23:21.998Z,97526.88
2023-03-12T16:25:53.017Z,97528.59
2023-03-12T16:28:25.542Z,97532.06
2023-03-12T16:30:53.770Z,97533.63
2023-03-12T16:33:23.682Z,97539.53
2023-03-12T16:35:52.798Z,97538.63
2023-03-12T16:38:20.039Z,97534.50
2023-03-12T16:40:49.860Z,97544.41
2023-03-12T16:43:25.726Z,97545.59
2023-03-12T16:45:54.378Z,97548.88
2023-03-12T16:48:24.672Z,97547.28
2023-03-12T16:50:54.778Z,97542.59
2023-03-12T16:53:22.919Z,97542.63
2023-03-12T16:55:55.557Z,97542.84
2023-03-12T16:58:24.281Z,97542.59
2023-03-12T17:00:53.644Z,97546.34
2023-03-12T17:03:41.095Z,97554.97
2023-03-12T17:06:13.191Z,97554.38
2023-03-12T17:08:40.367Z,97547.38
2023-03-12T17:11:17.767Z,97551.25
2023-03-12T17:13:47.540Z,97556.03
2023-03-12T17:16:14.912Z,97551.69
2023-03-12T17:18:42.334Z,97546.25
2023-03-12T17:21:21.312Z,97554.91
2023-03-12T17:23:50.496Z,97568.72
2023-03-12T17:26:18.843Z,97568.13
2023-03-12T17:28:45.755Z,97570.06
2023-03-12T17:31:13.189Z,97578.97
2023-03-12T17:33:40.415Z,97582.25
2023-03-12T17:36:09.578Z,97583.28
2023-03-12T17:38:37.520Z,97586.38
2023-03-12T17:41:13.839Z,97588.41
2023-03-12T17:43:50.724Z,97586.94
2023-03-12T17:46:17.718Z,97594.84
2023-03-12T17:48:46.879Z,97577.00
2023-03-12T17:51:14.776Z,97577.06
2023-03-12T17:53:42.321Z,97571.69
2023-03-12T17:56:14.353Z,97583.75
2023-03-12T17:58:45.164Z,97579.41
2023-03-12T18:01:13.507Z,97575.91
2023-03-12T18:03:44.233Z,97563.69
2023-03-12T18:06:12.328Z,97577.69
2023-03-12T18:08:40.712Z,97570.09
2023-03-12T18:11:09.866Z,97572.44
2023-03-12T18:13:39.355Z,97574.00
2023-03-12T18:16:08.389Z,97576.28
2023-03-12T18:18:35.736Z,97588.06
2023-03-12T18:21:03.025Z,97601.47
2023-03-12T18:23:32.181Z,97609.47
2023-03-12T18:26:02.197Z,97608.28
2023-03-12T18:28:29.502Z,97590.34
2023-03-12T18:30:56.595Z,97579.22
2023-03-12T18:33:23.561Z,97572.97
2023-03-12T18:35:52.530Z,97573.66
2023-03-12T18:38:21.698Z,97576.44
2023-03-12T18:40:50.061Z,97590.31
2023-03-12T18:43:16.981Z,97603.03
2023-03-12T18:45:44.172Z,97615.41
2023-03-12T18:48:11.525Z,97580.13
2023-03-12T18:50:38.906Z,97584.06
2023-03-12T18:53:05.824Z,97587.06
2023-03-12T18:55:33.039Z,97580.00
2023-03-12T18:58:02.508Z,97592.41
2023-03-12T19:00:29.861Z,97595.75
2023-03-12T19:02:57.023Z,97585.91
2023-03-12T19:05:24.010Z,97585.88
2023-03-12T19:07:51.096Z,97585.31
2023-03-12T19:10:23.779Z,97589.16
2023-03-12T19:12:54.069Z,97585.69
2023-03-12T19:15:24.388Z,97592.63
2023-03-12T19:17:51.622Z,97593.47
2023-03-12T19:20:19.439Z,97591.91
2023-03-12T19:22:48.935Z,97589.56
2023-03-12T19:25:18.063Z,97588.06
2023-03-12T19:27:45.101Z,97583.25
2023-03-12T19:30:13.831Z,97578.84
2023-03-12T19:32:44.432Z,97572.25
2023-03-12T19:35:15.669Z,97564.94
2023-03-12T19:37:42.695Z,97565.41
2023-03-12T19:40:10.888Z,97553.16
2023-03-12T19:42:37.847Z,97567.69
2023-03-12T19:45:05.345Z,97574.53
2023-03-12T19:47:36.053Z,97574.28
2023-03-12T19:50:07.371Z,97581.25
2023-03-12T19:52:36.974Z,97577.06
2023-03-12T19:55:05.600Z,97580.41
2023-03-12T19:57:34.235Z,97572.50
2023-03-12T20:00:01.668Z,97583.56
2023-03-12T20:02:31.377Z,97581.16
2023-03-12T20:04:58.288Z,97579.56
2023-03-12T20:07:26.500Z,97577.44
2023-03-12T20:09:53.471Z,97580.16
2023-03-12T20:12:20.486Z,97582.47
2023-03-12T20:14:50.676Z,97580.28
2023-03-12T20:17:17.885Z,97587.50
2023-03-12T20:19:44.991Z,97585.59
2023-03-12T20:22:15.414Z,97587.94
2023-03-12T20:24:42.677Z,97583.72
2023-03-12T20:27:09.810Z,97594.06
2023-03-12T20:29:36.914Z,97597.31
2023-03-12T20:32:04.002Z,97610.19
2023-03-12T20:34:30.786Z,97609.97
2023-03-12T20:36:57.986Z,97611.75
2023-03-12T20:39:25.078Z,97608.34
2023-03-12T20:41:51.904Z,97614.28
2023-03-12T20:44:18.878Z,97617.38
2023-03-12T20:46:46.591Z,97623.75
2023-03-12T20:49:14.094Z,97612.59
2023-03-12T20:51:42.767Z,97620.97
2023-03-12T20:54:09.941Z,97619.53
2023-03-12T20:56:38.820Z,97608.00
2023-03-12T20:59:05.874Z,97612.31
2023-03-12T21:01:33.604Z,97609.81
2023-03-12T21:04:00.657Z,97620.84
2023-03-12T21:06:27.711Z,97611.97
2023-03-12T21:08:59.184Z,97612.44
2023-03-12T21:11:31.283Z,97628.56
2023-03-12T21:13:58.252Z,97615.25
2023-03-12T21:16:25.577Z,97625.97
2023-03-12T21:19:01.599Z,97616.69
2023-03-12T21:21:35.304Z,97609.25
2023-03-12T21:24:02.293Z,97616.38
2023-03-12T21:26:29.308Z,97631.84
2023-03-12T21:28:56.573Z,97623.97
2023-03-12T21:31:29.327Z,97629.66
2023-03-12T21:34:00.696Z,97625.00
2023-03-12T21:36:31.592Z,97618.22
2023-03-12T21:39:01.236Z,97627.91
2023-03-12T21:41:28.037Z,97619.44
2023-03-12T21:43:55.089Z,97619.56
2023-03-12T21:46:27.659Z,97611.81
2023-03-12T21:48:54.642Z,97608.25
2023-03-12T21:51:22.900Z,97602.78
2023-03-12T21:53:54.656Z,97605.22
2023-03-12T21:56:22.393Z,97609.19
2023-03-12T21:58:49.243Z,97610.59
2023-03-12T22:01:18.288Z,97614.41
2023-03-12T22:03:46.836Z,97621.38
2023-03-12T22:06:16.275Z,97618.59
2023-03-12T22:08:44.302Z,97620.94
2023-03-12T22:11:11.726Z,97619.38
2023-03-12T22:13:39.876Z,97611.50
2023-03-12T22:16:08.513Z,97608.88
2023-03-12T22:18:41.228Z,97619.50
2023-03-12T22:21:11.004Z,97614.22
2023-03-12T22:23:37.750Z,97604.84
2023-03-12T22:26:06.571Z,97599.03
2023-03-12T22:28:33.638Z,97591.16
2023-03-12T22:31:02.595Z,97583.09
2023-03-12T22:33:29.859Z,97591.09
2023-03-12T22:35:57.432Z,97582.97
2023-03-12T22:38:25.130Z,97583.41
2023-03-12T22:40:53.752Z,97560.13
2023-03-12T22:43:24.905Z,97569.44
2023-03-12T22:45:55.360Z,97562.16
2023-03-12T22:48:22.404Z,97566.44
2023-03-12T22:50:56.561Z,97556.00
2023-03-12T22:53:26.879Z,97552.53
2023-03-12T22:56:02.328Z,97552.88
2023-03-12T22:58:30.134Z,97547.72
2023-03-12T23:01:05.743Z,97551.56
2023-03-12T23:03:34.052Z,97548.59
2023-03-12T23:06:02.114Z,97547.50
2023-03-12T23:08:30.197Z,97544.34
2023-03-12T23:11:00.142Z,97537.03
2023-03-12T23:13:29.545Z,97537.81
2023-03-12T23:16:05.366Z,97529.94
2023-03-12T23:18:33.585Z,97532.84
2023-03-12T23:21:10.541Z,97516.44
2023-03-12T23:23:43.508Z,97508.91
2023-03-12T23:26:16.781Z,97507.34
2023-03-12T23:28:46.931Z,97501.16
2023-03-12T23:31:15.809Z,97497.59
2023-03-12T23:33:44.007Z,97502.72
2023-03-12T23:36:13.764Z,97501.66
2023-03-12T23:38:41.442Z,97511.91
2023-03-12T23:41:12.729Z,97506.47
2023-03-12T23:43:39.799Z,97508.22
2023-03-12T23:46:08.900Z,97509.88
2023-03-12T23:48:37.336Z,97507.91
2023-03-12T23:51:14.860Z,97517.19
2023-03-12T23:53:44.310Z,97508.88
2023-03-12T23:56:19.227Z,97511.69
2023-03-12T23:58:46.686Z,97512.03
